sensor_id;sensor_type;location;lat;lon;timestamp;P1;durP1;ratioP1;P2;durP2;ratioP2
57291;SDS011;43144;50.972;18.220;2023-04-24T00:09:05;7.60;;;6.90;;
57291;SDS011;43144;50.972;18.220;2023-04-24T00:18:54;7.30;;;6.70;;
57291;SDS011;43144;50.972;18.220;2023-04-24T00:28:43;11.00;;;6.90;;
57291;SDS011;43144;50.972;18.220;2023-04-24T00:38:33;7.60;;;6.80;;
57291;SDS011;43144;50.972;18.220;2023-04-24T00:48:22;6.30;;;5.80;;
57291;SDS011;43144;50.972;18.220;2023-04-24T00:58:12;5.80;;;5.50;;
57291;SDS011;43144;50.972;18.220;2023-04-24T01:08:01;7.50;;;5.00;;
57291;SDS011;43144;50.972;18.220;2023-04-24T01:17:51;6.80;;;6.20;;
57291;SDS011;43144;50.972;18.220;2023-04-24T01:27:40;13.90;;;5.80;;
57291;SDS011;43144;50.972;18.220;2023-04-24T01:37:32;6.20;;;5.60;;
57291;SDS011;43144;50.972;18.220;2023-04-24T01:47:21;7.10;;;6.60;;
57291;SDS011;43144;50.972;18.220;2023-04-24T01:57:11;6.90;;;6.30;;
57291;SDS011;43144;50.972;18.220;2023-04-24T02:07:01;2.50;;;2.10;;
57291;SDS011;43144;50.972;18.220;2023-04-24T02:16:51;6.90;;;6.50;;
57291;SDS011;43144;50.972;18.220;2023-04-24T02:26:40;6.20;;;5.90;;
57291;SDS011;43144;50.972;18.220;2023-04-24T02:36:30;7.60;;;7.10;;
57291;SDS011;43144;50.972;18.220;2023-04-24T02:46:19;12.40;;;7.50;;
57291;SDS011;43144;50.972;18.220;2023-04-24T02:56:08;16.70;;;7.90;;
57291;SDS011;43144;50.972;18.220;2023-04-24T03:05:58;4.40;;;4.20;;
57291;SDS011;43144;50.972;18.220;2023-04-24T03:15:47;7.40;;;7.00;;
57291;SDS011;43144;50.972;18.220;2023-04-24T03:25:37;9.50;;;8.70;;
57291;SDS011;43144;50.972;18.220;2023-04-24T03:35:26;7.70;;;6.90;;
57291;SDS011;43144;50.972;18.220;2023-04-24T03:45:16;10.60;;;9.60;;
57291;SDS011;43144;50.972;18.220;2023-04-24T03:55:06;13.60;;;7.40;;
57291;SDS011;43144;50.972;18.220;2023-04-24T04:04:57;7.50;;;6.80;;
57291;SDS011;43144;50.972;18.220;2023-04-24T04:14:46;9.00;;;8.20;;
57291;SDS011;43144;50.972;18.220;2023-04-24T04:24:35;9.50;;;8.90;;
57291;SDS011;43144;50.972;18.220;2023-04-24T04:34:24;11.60;;;9.40;;
57291;SDS011;43144;50.972;18.220;2023-04-24T04:44:15;10.70;;;9.70;;
57291;SDS011;43144;50.972;18.220;2023-04-24T04:54:04;14.80;;;8.50;;
57291;SDS011;43144;50.972;18.220;2023-04-24T05:03:53;7.10;;;6.60;;
57291;SDS011;43144;50.972;18.220;2023-04-24T05:13:42;14.30;;;10.00;;
57291;SDS011;43144;50.972;18.220;2023-04-24T05:23:32;8.20;;;7.60;;
57291;SDS011;43144;50.972;18.220;2023-04-24T05:33:21;8.10;;;7.60;;
57291;SDS011;43144;50.972;18.220;2023-04-24T05:43:11;9.10;;;8.40;;
57291;SDS011;43144;50.972;18.220;2023-04-24T05:53:00;8.60;;;8.00;;
57291;SDS011;43144;50.972;18.220;2023-04-24T06:02:50;5.00;;;4.70;;
57291;SDS011;43144;50.972;18.220;2023-04-24T06:12:39;10.50;;;9.80;;
57291;SDS011;43144;50.972;18.220;2023-04-24T06:22:30;15.60;;;7.60;;
57291;SDS011;43144;50.972;18.220;2023-04-24T06:32:20;7.80;;;7.10;;
57291;SDS011;43144;50.972;18.220;2023-04-24T06:42:13;8.20;;;7.60;;
57291;SDS011;43144;50.972;18.220;2023-04-24T10:11:50;4.30;;;4.00;;
57291;SDS011;43144;50.972;18.220;2023-04-24T10:21:42;2.90;;;2.70;;
57291;SDS011;43144;50.972;18.220;2023-04-24T10:31:32;8.40;;;4.30;;
57291;SDS011;43144;50.972;18.220;2023-04-24T10:41:22;14.30;;;4.20;;
57291;SDS011;43144;50.972;18.220;2023-04-24T10:51:45;5.80;;;5.30;;
57291;SDS011;43144;50.972;18.220;2023-04-24T11:01:54;6.10;;;3.90;;
57291;SDS011;43144;50.972;18.220;2023-04-24T11:19:55;12.40;;;3.20;;
57291;SDS011;43144;50.972;18.220;2023-04-24T11:29:58;8.00;;;7.50;;
57291;SDS011;43144;50.972;18.220;2023-04-24T11:39:51;3.30;;;3.10;;
57291;SDS011;43144;50.972;18.220;2023-04-24T11:49:41;6.60;;;6.10;;
57291;SDS011;43144;50.972;18.220;2023-04-24T11:59:34;4.60;;;4.20;;
57291;SDS011;43144;50.972;18.220;2023-04-24T12:09:41;6.40;;;6.00;;
57291;SDS011;43144;50.972;18.220;2023-04-24T12:19:50;5.30;;;4.60;;
57291;SDS011;43144;50.972;18.220;2023-04-24T12:37:13;4.40;;;4.10;;
57291;SDS011;43144;50.972;18.220;2023-04-24T12:47:07;4.20;;;4.00;;
57291;SDS011;43144;50.972;18.220;2023-04-24T12:57:00;4.90;;;4.50;;
57291;SDS011;43144;50.972;18.220;2023-04-24T13:06:50;11.10;;;3.40;;
57291;SDS011;43144;50.972;18.220;2023-04-24T13:16:41;5.60;;;5.10;;
57291;SDS011;43144;50.972;18.220;2023-04-24T13:26:31;6.30;;;6.00;;
57291;SDS011;43144;50.972;18.220;2023-04-24T13:36:20;12.00;;;6.00;;
57291;SDS011;43144;50.972;18.220;2023-04-24T13:46:11;5.90;;;5.50;;
57291;SDS011;43144;50.972;18.220;2023-04-24T13:56:00;8.70;;;5.40;;
57291;SDS011;43144;50.972;18.220;2023-04-24T14:05:49;41.60;;;32.00;;
57291;SDS011;43144;50.972;18.220;2023-04-24T14:15:39;21.40;;;19.20;;
57291;SDS011;43144;50.972;18.220;2023-04-24T14:25:28;5.10;;;4.90;;
57291;SDS011;43144;50.972;18.220;2023-04-24T14:35:19;4.70;;;4.50;;
57291;SDS011;43144;50.972;18.220;2023-04-24T14:45:09;2.50;;;2.40;;
57291;SDS011;43144;50.972;18.220;2023-04-24T15:02:23;7.10;;;6.50;;
57291;SDS011;43144;50.972;18.220;2023-04-24T15:12:13;8.00;;;7.50;;
57291;SDS011;43144;50.972;18.220;2023-04-24T15:22:02;10.10;;;9.40;;
57291;SDS011;43144;50.972;18.220;2023-04-24T15:31:51;5.50;;;5.20;;
57291;SDS011;43144;50.972;18.220;2023-04-24T15:41:41;9.50;;;8.90;;
57291;SDS011;43144;50.972;18.220;2023-04-24T15:51:31;9.90;;;9.40;;
57291;SDS011;43144;50.972;18.220;2023-04-24T16:01:23;14.20;;;13.20;;
57291;SDS011;43144;50.972;18.220;2023-04-24T16:11:12;12.40;;;11.80;;
57291;SDS011;43144;50.972;18.220;2023-04-24T16:21:01;14.40;;;13.40;;
57291;SDS011;43144;50.972;18.220;2023-04-24T16:30:50;14.40;;;13.40;;
57291;SDS011;43144;50.972;18.220;2023-04-24T16:40:39;30.70;;;23.50;;
57291;SDS011;43144;50.972;18.220;2023-04-24T17:05:13;23.50;;;22.00;;
57291;SDS011;43144;50.972;18.220;2023-04-24T17:15:04;21.10;;;19.30;;
57291;SDS011;43144;50.972;18.220;2023-04-24T17:24:54;23.50;;;21.60;;
57291;SDS011;43144;50.972;18.220;2023-04-24T17:34:43;24.00;;;22.20;;
57291;SDS011;43144;50.972;18.220;2023-04-24T17:44:33;21.00;;;19.20;;
57291;SDS011;43144;50.972;18.220;2023-04-24T17:54:22;20.90;;;19.40;;
57291;SDS011;43144;50.972;18.220;2023-04-24T18:11:32;19.70;;;18.50;;
57291;SDS011;43144;50.972;18.220;2023-04-24T18:21:21;17.80;;;16.60;;
57291;SDS011;43144;50.972;18.220;2023-04-24T18:31:10;14.00;;;8.80;;
57291;SDS011;43144;50.972;18.220;2023-04-24T18:40:59;5.40;;;5.00;;
57291;SDS011;43144;50.972;18.220;2023-04-24T18:50:48;5.40;;;5.10;;
57291;SDS011;43144;50.972;18.220;2023-04-24T19:00:39;10.90;;;10.00;;
57291;SDS011;43144;50.972;18.220;2023-04-24T19:10:28;5.10;;;4.80;;
57291;SDS011;43144;50.972;18.220;2023-04-24T19:20:18;5.00;;;4.60;;
57291;SDS011;43144;50.972;18.220;2023-04-24T19:30:08;7.10;;;6.50;;
57291;SDS011;43144;50.972;18.220;2023-04-24T19:40:00;6.00;;;5.70;;
57291;SDS011;43144;50.972;18.220;2023-04-24T19:49:51;5.70;;;4.70;;
57291;SDS011;43144;50.972;18.220;2023-04-24T19:59:40;4.80;;;4.40;;
57291;SDS011;43144;50.972;18.220;2023-04-24T20:09:29;11.30;;;10.20;;
57291;SDS011;43144;50.972;18.220;2023-04-24T20:26:39;3.90;;;3.60;;
57291;SDS011;43144;50.972;18.220;2023-04-24T20:36:28;6.80;;;6.30;;
57291;SDS011;43144;50.972;18.220;2023-04-24T20:46:17;5.90;;;5.50;;
57291;SDS011;43144;50.972;18.220;2023-04-24T21:03:28;7.10;;;6.70;;
57291;SDS011;43144;50.972;18.220;2023-04-24T21:13:17;8.20;;;7.50;;
57291;SDS011;43144;50.972;18.220;2023-04-24T21:23:06;10.60;;;6.30;;
57291;SDS011;43144;50.972;18.220;2023-04-24T21:40:17;42.60;;;24.70;;
57291;SDS011;43144;50.972;18.220;2023-04-24T21:50:08;18.30;;;16.30;;
57291;SDS011;43144;50.972;18.220;2023-04-24T21:59:59;37.10;;;32.00;;
57291;SDS011;43144;50.972;18.220;2023-04-24T22:09:48;24.60;;;22.20;;
57291;SDS011;43144;50.972;18.220;2023-04-24T22:19:37;14.50;;;13.00;;
57291;SDS011;43144;50.972;18.220;2023-04-24T22:29:27;10.90;;;10.10;;
57291;SDS011;43144;50.972;18.220;2023-04-24T22:39:16;14.40;;;13.10;;
57291;SDS011;43144;50.972;18.220;2023-04-24T22:49:06;22.20;;;19.90;;
57291;SDS011;43144;50.972;18.220;2023-04-24T22:58:56;68.60;;;38.10;;
57291;SDS011;43144;50.972;18.220;2023-04-24T23:08:47;106.50;;;47.80;;
57291;SDS011;43144;50.972;18.220;2023-04-24T23:18:36;12.00;;;11.00;;
57291;SDS011;43144;50.972;18.220;2023-04-24T23:28:26;12.50;;;11.50;;
57291;SDS011;43144;50.972;18.220;2023-04-24T23:38:15;14.80;;;13.60;;
57291;SDS011;43144;50.972;18.220;2023-04-24T23:48:05;19.30;;;17.70;;
57291;SDS011;43144;50.972;18.220;2023-04-24T23:57:54;9.10;;;8.50;;
